Strona główna
METAR-TAF:

METAR-TAF

Lotnisko :

Vineyard Haven, Massachusetts, Stany Zjednoczone

Szerokość geograficzna: 41-23-32N, Długość geograficzna: 070-37-00W, wysokość: 20 m

Aktualna obserwacja pogody

Raport powstał 29 minut temu, godzina 17:53 UTC
Wiatr 14 kt od południowo-południowy zachód
Temperatura 6°C
Wilgotność 81%
Ciśnienie 1025 hPa
Widzialność: 16.1 km
Zachmurzenie całkowite na wysokości 4500 ft

METAR: KMVY 231753Z 21014KT 10SM OVC045 06/03 A3027 RMK AO2 SLP250 T00610028 10067 20017 58034

czas: 13:22 (18:22 UTC)


TAF: brakujący

Obserwacja i prognoza pogody dla ponad 4000 lotnisk (raport METAR i TAF).

Dostępne stacje oznaczono żółtymi i czerwonymi punktami na mapie.

Najedź kursorem aby zobaczyć nazwę stacji.

Kliknij aby zobaczyć obserwacje i prognozy pogody.

Aby zmienić mapę: kliknij na zielony przycisk z czarnym krzyżykiem, aby powiększyć; na zielony przycisk z myślnikiem, aby pomniejszyć; na zielone strzałki, aby przejść do map sąsiednich.


METAR-TAF: